createdAt,value
2023-05-08T00:01:59.803Z,99781.41
2023-05-08T00:07:01.712Z,99785.63
2023-05-08T00:12:03.642Z,99785.15
2023-05-08T00:17:05.741Z,99786.22
2023-05-08T00:22:08.059Z,99786.88
2023-05-08T00:27:09.853Z,99785.48
2023-05-08T00:32:12.082Z,99785.78
2023-05-08T00:37:32.701Z,99787.31
2023-05-08T00:42:34.621Z,99784.63
2023-05-08T00:47:36.748Z,99774.69
2023-05-08T00:52:39.350Z,99778.57
2023-05-08T00:57:41.300Z,99785.40
2023-05-08T01:02:43.773Z,99786.86
2023-05-08T01:07:45.625Z,99786.46
2023-05-08T01:13:07.686Z,99790.52
2023-05-08T01:18:42.741Z,99791.15
2023-05-08T01:24:36.695Z,99789.75
2023-05-08T01:30:11.536Z,99791.04
2023-05-08T01:35:41.220Z,99797.51
2023-05-08T01:41:08.998Z,99796.59
2023-05-08T01:46:16.918Z,99794.37
2023-05-08T01:51:23.009Z,99800.57
2023-05-08T01:56:29.130Z,99802.52
2023-05-08T02:01:33.415Z,99793.34
2023-05-08T02:06:37.408Z,99792.45
2023-05-08T02:11:46.096Z,99795.05
2023-05-08T02:16:54.954Z,99799.84
2023-05-08T02:22:00.604Z,99799.04
2023-05-08T02:27:02.812Z,99809.27
2023-05-08T02:32:06.697Z,99807.71
2023-05-08T02:37:10.474Z,99803.71
2023-05-08T02:42:12.827Z,99806.05
2023-05-08T02:47:29.756Z,99810.74
2023-05-08T02:53:03.384Z,99809.91
2023-05-08T02:58:08.293Z,99811.77
2023-05-08T03:03:21.159Z,99816.10
2023-05-08T03:08:28.349Z,99815.45
2023-05-08T03:13:34.563Z,99812.38
2023-05-08T03:18:54.927Z,99815.70
2023-05-08T03:24:00.738Z,99816.67
2023-05-08T03:29:03.015Z,99821.58
2023-05-08T03:34:09.707Z,99827.63
2023-05-08T03:39:12.216Z,99832.30
2023-05-08T03:44:16.561Z,99830.27
2023-05-08T03:49:20.044Z,99826.29
2023-05-08T03:54:25.413Z,99831.03
2023-05-08T03:59:33.346Z,99830.89
2023-05-08T04:04:40.892Z,99841.73
2023-05-08T04:09:58.358Z,99839.85
2023-05-08T04:15:09.286Z,99852.83
2023-05-08T04:20:17.152Z,99854.06
2023-05-08T04:25:21.379Z,99858.90
2023-05-08T04:30:24.668Z,99864.05
2023-05-08T04:35:26.791Z,99862.67
2023-05-08T04:40:29.489Z,99873.58
2023-05-08T04:45:31.750Z,99880.66
2023-05-08T04:50:33.663Z,99874.94
2023-05-08T04:55:35.590Z,99875.27
2023-05-08T05:00:37.525Z,99877.96
2023-05-08T05:05:39.534Z,99876.87
2023-05-08T05:10:41.558Z,99890.71
2023-05-08T05:15:43.536Z,99896.16
2023-05-08T05:20:46.311Z,99893.59
2023-05-08T05:25:48.579Z,99903.49
2023-05-08T05:30:50.344Z,99911.52
2023-05-08T05:35:52.434Z,99913.98
2023-05-08T05:40:54.349Z,99916.11
2023-05-08T05:45:56.284Z,99926.27
2023-05-08T05:50:59.578Z,99928.33
2023-05-08T05:56:01.343Z,99936.23
2023-05-08T06:01:04.680Z,99944.04
2023-05-08T06:06:06.931Z,99945.52
2023-05-08T06:11:08.825Z,99951.00
2023-05-08T06:16:10.637Z,99961.41
2023-05-08T06:21:12.360Z,99969.98
2023-05-08T06:26:29.896Z,99960.42
2023-05-08T06:31:34.643Z,99969.88
2023-05-08T06:36:36.676Z,99968.14
2023-05-08T06:41:38.477Z,99975.03
2023-05-08T06:46:40.663Z,99976.69
2023-05-08T06:51:42.546Z,99983.71
2023-05-08T06:56:44.438Z,99989.05
2023-05-08T07:01:46.332Z,99988.45
2023-05-08T07:06:48.161Z,99999.11
2023-05-08T07:11:49.880Z,100001.73
2023-05-08T07:16:51.583Z,100003.52
2023-05-08T07:21:53.314Z,100008.77
2023-05-08T07:26:55.291Z,100008.03
2023-05-08T07:31:57.122Z,100010.83
2023-05-08T07:36:58.994Z,100014.98
2023-05-08T07:42:01.605Z,100021.26
2023-05-08T07:47:03.853Z,100022.55
2023-05-08T07:52:05.832Z,100020.65
2023-05-08T07:57:07.587Z,100015.95
2023-05-08T08:02:09.548Z,100020.29
2023-05-08T08:07:11.438Z,100020.44
2023-05-08T08:12:13.122Z,100013.01
2023-05-08T08:17:14.862Z,100013.16
2023-05-08T08:22:16.705Z,100017.25
2023-05-08T08:27:18.387Z,100014.92
2023-05-08T08:32:20.075Z,100013.55
2023-05-08T08:37:22.179Z,100015.02
2023-05-08T08:42:24.234Z,100011.91
2023-05-08T08:47:29.915Z,100020.61
2023-05-08T08:52:54.527Z,100024.27
2023-05-08T08:58:26.708Z,100023.48
2023-05-08T09:03:28.620Z,100037.09
2023-05-08T09:08:30.887Z,100039.84
2023-05-08T09:13:32.653Z,100040.97
2023-05-08T09:18:34.378Z,100040.57
2023-05-08T09:23:36.737Z,100036.85
2023-05-08T09:28:38.500Z,100038.95
2023-05-08T09:33:44.753Z,100042.64
2023-05-08T09:38:46.497Z,100041.27
2023-05-08T09:44:01.621Z,100048.27
2023-05-08T09:49:04.477Z,100034.89
2023-05-08T09:54:17.897Z,100032.94
2023-05-08T09:59:27.982Z,100026.54
2023-05-08T10:04:34.222Z,100023.55
2023-05-08T10:09:49.678Z,100020.71
2023-05-08T10:14:52.394Z,100018.08
2023-05-08T10:20:00.068Z,100017.32
2023-05-08T10:25:06.626Z,100014.23
2023-05-08T10:30:10.000Z,99999.98
2023-05-08T10:35:12.437Z,99993.68
2023-05-08T10:40:18.711Z,99985.98
2023-05-08T10:45:20.734Z,99988.25
2023-05-08T10:50:33.715Z,99980.46
2023-05-08T10:55:41.357Z,99970.30
2023-05-08T11:01:09.414Z,99967.89
2023-05-08T11:06:13.619Z,99967.09
2023-05-08T11:11:24.720Z,99964.37
2023-05-08T11:16:54.800Z,99961.83
2023-05-08T11:22:23.916Z,99965.98
2023-05-08T11:27:34.999Z,99966.73
2023-05-08T11:32:56.116Z,99969.01
2023-05-08T11:38:17.255Z,99965.08
2023-05-08T11:43:29.311Z,99963.56
2023-05-08T11:48:32.800Z,99960.15
2023-05-08T11:53:36.505Z,99958.93
2023-05-08T11:58:40.745Z,99951.46
2023-05-08T12:04:02.152Z,99949.33
2023-05-08T12:09:13.127Z,99947.91
2023-05-08T12:14:18.254Z,99951.50
2023-05-08T12:19:20.570Z,99950.27
2023-05-08T12:24:23.733Z,99956.59
2023-05-08T12:29:28.696Z,99961.21
2023-05-08T12:34:30.403Z,99965.09
2023-05-08T12:39:37.523Z,99963.77
2023-05-08T12:44:39.327Z,99962.36
2023-05-08T12:49:41.055Z,99955.02
2023-05-08T12:54:49.513Z,99955.98
2023-05-08T12:59:51.369Z,99956.23
2023-05-08T13:04:56.569Z,99944.04
2023-05-08T13:10:05.514Z,99943.45
2023-05-08T13:15:08.233Z,99937.45
2023-05-08T13:20:11.383Z,99934.45
2023-05-08T13:25:13.719Z,99941.55
2023-05-08T13:30:16.687Z,99937.45
2023-05-08T13:35:19.514Z,99934.80
2023-05-08T13:40:21.546Z,99937.73
2023-05-08T13:45:23.482Z,99928.80
2023-05-08T13:50:25.399Z,99927.18
2023-05-08T13:55:27.247Z,99922.70
2023-05-08T14:00:29.040Z,99929.39
2023-05-08T14:05:30.823Z,99923.41
2023-05-08T14:10:32.617Z,99926.98
2023-05-08T14:15:37.398Z,99921.73
2023-05-08T14:20:39.566Z,99930.37
2023-05-08T14:25:41.294Z,99922.60
2023-05-08T14:30:42.963Z,99914.96
2023-05-08T14:35:45.956Z,99918.90
2023-05-08T14:40:51.099Z,99907.39
2023-05-08T14:45:52.939Z,99911.83
2023-05-08T14:50:54.796Z,99916.27
2023-05-08T14:55:56.872Z,99926.88
2023-05-08T15:00:58.864Z,99932.02
2023-05-08T15:06:01.198Z,99934.17
2023-05-08T15:11:02.888Z,99939.67
2023-05-08T15:16:05.585Z,99927.34
2023-05-08T15:21:07.406Z,99934.08
2023-05-08T15:26:09.184Z,99932.33
2023-05-08T15:31:10.831Z,99931.33
2023-05-08T15:36:13.677Z,99922.46
2023-05-08T15:41:15.743Z,99925.63
2023-05-08T15:46:17.748Z,99923.02
2023-05-08T15:51:19.810Z,99926.49
2023-05-08T15:56:24.465Z,99925.98
2023-05-08T16:01:26.233Z,99922.66
2023-05-08T16:06:28.544Z,99921.45
2023-05-08T16:11:33.769Z,99916.63
2023-05-08T16:16:35.707Z,99920.14
2023-05-08T16:21:37.552Z,99916.59
2023-05-08T16:26:39.243Z,99906.34
2023-05-08T16:31:40.938Z,99908.89
2023-05-08T16:36:42.674Z,99911.45
2023-05-08T16:41:44.555Z,99911.81
2023-05-08T16:46:54.282Z,99919.98
2023-05-08T16:51:56.034Z,99922.21
2023-05-08T16:56:58.071Z,99925.89
2023-05-08T17:01:59.963Z,99924.86
2023-05-08T17:07:01.822Z,99930.88
2023-05-08T17:12:03.812Z,99928.41
2023-05-08T17:17:06.269Z,99927.89
2023-05-08T17:22:08.011Z,99924.55
2023-05-08T17:27:09.909Z,99926.80
2023-05-08T17:32:11.802Z,99924.79
2023-05-08T17:37:13.749Z,99918.00
2023-05-08T17:42:15.957Z,99904.96
2023-05-08T17:47:17.974Z,99919.60
2023-05-08T17:52:19.649Z,99918.19
2023-05-08T17:57:21.444Z,99913.59
2023-05-08T18:02:23.224Z,99919.71
2023-05-08T18:07:25.315Z,99925.80
2023-05-08T18:12:27.017Z,99924.20
2023-05-08T18:17:29.794Z,99929.59
2023-05-08T18:22:31.610Z,99930.59
2023-05-08T18:27:36.269Z,99930.28
2023-05-08T18:32:37.968Z,99935.85
2023-05-08T18:37:39.699Z,99938.70
2023-05-08T18:42:41.393Z,99939.08
2023-05-08T18:47:43.132Z,99944.30
2023-05-08T18:52:45.071Z,99945.21
2023-05-08T18:57:46.785Z,99949.36
2023-05-08T19:02:48.526Z,99956.15
2023-05-08T19:07:50.480Z,99955.51
2023-05-08T19:12:52.196Z,99954.35
2023-05-08T19:17:54.027Z,99954.29
2023-05-08T19:22:55.784Z,99949.62
2023-05-08T19:27:58.739Z,99948.33
2023-05-08T19:33:00.413Z,99952.55
2023-05-08T19:38:02.134Z,99950.45
2023-05-08T19:43:04.195Z,99954.45
2023-05-08T19:48:10.562Z,99948.08
2023-05-08T19:53:17.980Z,99940.66
2023-05-08T19:58:19.712Z,99937.00
2023-05-08T20:03:21.528Z,99936.16
2023-05-08T20:08:23.517Z,99934.05
2023-05-08T20:13:25.435Z,99931.82
2023-05-08T20:18:27.269Z,99925.17
2023-05-08T20:23:29.029Z,99920.23
2023-05-08T20:28:31.129Z,99923.66
2023-05-08T20:33:32.854Z,99924.40
2023-05-08T20:38:36.550Z,99922.76
2023-05-08T20:43:38.580Z,99920.14
2023-05-08T20:48:40.395Z,99916.11
2023-05-08T20:53:42.141Z,99917.58
2023-05-08T20:58:43.806Z,99924.70
2023-05-08T21:03:45.551Z,99924.85
2023-05-08T21:08:48.231Z,99917.27
2023-05-08T21:13:55.434Z,99917.72
2023-05-08T21:18:58.327Z,99915.17
2023-05-08T21:24:00.379Z,99914.77
2023-05-08T21:29:04.283Z,99914.23
2023-05-08T21:34:07.293Z,99913.52
2023-05-08T21:39:10.818Z,99911.92
2023-05-08T21:44:15.718Z,99905.83
2023-05-08T21:49:19.764Z,99905.43
2023-05-08T21:54:24.172Z,99904.83
2023-05-08T21:59:26.261Z,99905.15
2023-05-08T22:04:27.971Z,99902.44
2023-05-08T22:09:29.724Z,99898.62
2023-05-08T22:14:31.454Z,99889.95
2023-05-08T22:19:33.270Z,99890.03
2023-05-08T22:24:34.985Z,99888.36
2023-05-08T22:29:36.629Z,99891.39
2023-05-08T22:34:38.642Z,99884.57
2023-05-08T22:39:40.408Z,99882.98
2023-05-08T22:44:43.527Z,99878.86
2023-05-08T22:49:45.212Z,99873.63
2023-05-08T22:54:47.059Z,99868.96
2023-05-08T22:59:48.907Z,99871.92
2023-05-08T23:04:51.051Z,99867.40
2023-05-08T23:09:53.830Z,99865.08
2023-05-08T23:14:57.992Z,99864.41
2023-05-08T23:19:59.781Z,99869.47
2023-05-08T23:25:01.509Z,99865.48
2023-05-08T23:30:03.634Z,99856.16
2023-05-08T23:35:11.638Z,99856.91
2023-05-08T23:40:14.366Z,99853.88
2023-05-08T23:45:16.542Z,99852.61
2023-05-08T23:50:20.906Z,99849.55
2023-05-08T23:55:22.637Z,99838.52
